Date,TemperatureHighF,TemperatureAvgF,TemperatureLowF,DewpointHighF,DewpointAvgF,DewpointLowF,HumidityHigh,HumidityAvg,HumidityLow,PressureMaxIn,PressureMinIn,WindSpeedMaxMPH,WindSpeedAvgMPH,GustSpeedMaxMPH,PrecipitationSumIn
2013-4-1,75.7,64.3,52.1,28.7,22.0,13.4,37,21,11,29.53,29.53,0,0,0,0.77
2013-4-2,68.5,60.8,52.2,29.8,19.7,9.5,37,21,10,29.53,29.53,0,0,0,0.00
2013-4-3,68.8,57.3,46.5,33.4,27.5,20.9,51,34,18,29.53,29.53,0,0,0,0.00
2013-4-4,61.7,52.3,46.8,28.6,26.5,23.2,47,37,23,29.53,29.53,0,0,0,0.00
2013-4-8,77.4,69.9,59.3,29.1,24.2,18.0,28,18,11,29.53,29.53,0,0,0,0.00
2013-4-9,62.1,51.9,44.3,41.7,33.2,26.7,72,50,28,29.53,29.53,0,0,0,0.14
2013-4-10,56.4,48.3,42.2,37.4,28.1,21.0,75,47,30,29.53,29.53,0,0,0,0.01
2013-4-11,67.7,52.3,37.6,30.7,24.9,18.3,53,36,23,29.53,29.53,0,0,0,0.00
2013-4-12,73.5,59.9,48.2,33.4,30.1,24.8,53,34,19,29.53,29.53,0,0,0,0.00
2013-4-13,76.9,62.4,48.4,30.3,24.8,17.9,42,26,13,29.53,29.53,0,0,0,0.00
2013-4-14,79.4,66.8,57.1,28.4,24.9,22.2,27,21,13,29.53,29.53,0,0,0,0.00
2013-4-15,81.0,67.0,52.9,27.6,22.7,16.9,31,20,10,29.53,29.53,0,0,0,0.00
2013-4-16,80.5,67.8,54.7,26.4,19.5,11.7,27,17,9,29.53,29.53,0,0,0,0.00
2013-4-17,71.0,59.7,49.1,28.9,20.8,12.0,30,22,14,29.53,29.53,0,0,0,0.00
2013-4-18,60.4,48.9,39.1,18.1,8.7,2.1,30,20,11,29.53,29.53,0,0,0,0.00
2013-4-19,65.0,50.9,36.3,12.1,7.7,3.8,28,18,11,29.53,29.53,0,0,0,0.00
2013-4-20,73.6,60.0,48.1,21.3,11.6,1.2,24,15,12,29.53,29.53,0,0,0,0.00
2013-4-21,76.2,62.1,46.6,25.1,20.5,12.8,38,22,10,29.53,29.53,0,0,0,0.00
2013-4-22,82.8,67.4,50.1,22.9,19.2,15.6,28,17,10,29.53,29.53,0,0,0,0.00
2013-4-23,75.8,63.6,49.5,30.5,20.5,-1.9,36,20,8,29.53,29.53,0,0,0,0.00
2013-4-24,71.1,56.2,40.3,25.0,19.3,14.4,39,25,15,29.53,29.53,0,0,0,0.00
2013-4-25,77.5,64.3,54.2,31.2,25.4,19.6,31,23,14,29.53,29.53,0,0,0,0.00
2013-4-26,78.3,65.6,52.8,31.8,24.4,12.8,39,23,9,29.53,29.53,0,0,0,0.00
2013-4-27,80.0,66.6,52.9,30.1,21.1,7.4,37,20,9,29.53,29.53,0,0,0,0.00
2013-4-28,82.6,67.4,51.0,19.5,14.9,9.8,22,14,7,29.53,29.53,0,0,0,0.00
2013-4-29,86.6,70.8,53.3,24.5,19.9,13.0,26,15,10,29.53,29.53,0,0,0,0.00
2013-4-30,88.6,73.7,58.4,25.1,21.1,16.1,24,15,9,29.53,29.53,0,0,0,0.00